Time;durP1;ratioP1;P1;durP2;ratioP2;P2;SDS_P1;SDS_P2;PMS_P1;PMS_P2;Temp;Humidity;BMP_temperature;BMP_pressure;BME280_temperature;BME280_humidity;BME280_pressure;Samples;Min_cycle;Max_cycle;Signal;HPM_P1;HPM_P2
2021/12/13 00:01:30;;;;;;;11.38;1.58;;;12.70;99.90;;;;;;6332603;22;19999;-70
2021/12/13 00:04:00;;;;;;;13.48;1.77;;;12.70;99.90;;;;;;6334413;22;20491;-71
2021/12/13 00:06:30;;;;;;;16.77;2.33;;;12.70;99.90;;;;;;6329905;22;20438;-69
2021/12/13 00:09:06;;;;;;;18.40;2.30;;;12.70;99.90;;;;;;6334199;22;20003;-71
2021/12/13 00:11:37;;;;;;;15.27;1.83;;;12.80;99.90;;;;;;6332607;22;20003;-69
2021/12/13 00:14:22;;;;;;;12.23;1.80;;;12.70;99.90;;;;;;6334755;22;20010;-70
2021/12/13 00:16:57;;;;;;;20.23;3.08;;;12.70;99.90;;;;;;6334372;22;20021;-70
2021/12/13 00:19:30;;;;;;;26.88;2.90;;;12.70;99.90;;;;;;6332498;22;20002;-69
2021/12/13 00:22:02;;;;;;;18.15;2.70;;;12.70;99.90;;;;;;6334210;22;20048;-70
2021/12/13 00:24:32;;;;;;;13.07;2.13;;;12.70;99.90;;;;;;6334250;22;20014;-69
2021/12/13 00:27:11;;;;;;;27.38;3.08;;;12.70;99.90;;;;;;6333949;22;20007;-70
2021/12/13 00:30:18;;;;;;;21.85;2.45;;;12.60;99.90;;;;;;6335511;22;20449;-70
2021/12/13 00:32:52;;;;;;;14.32;2.17;;;12.60;99.90;;;;;;6333392;22;19998;-70
2021/12/13 00:35:23;;;;;;;15.23;2.00;;;12.70;99.90;;;;;;6335246;22;20025;-70
2021/12/13 00:37:57;;;;;;;16.80;2.15;;;12.60;99.90;;;;;;6334460;22;20010;-68
2021/12/13 00:40:34;;;;;;;20.08;2.65;;;12.70;99.90;;;;;;6333248;22;20375;-70
2021/12/13 00:43:25;;;;;;;16.80;2.17;;;12.60;99.90;;;;;;6307225;22;20007;-69
2021/12/13 00:46:02;;;;;;;14.48;2.40;;;12.70;99.90;;;;;;6333682;22;20009;-70
2021/12/13 00:48:31;;;;;;;13.80;2.10;;;12.70;99.90;;;;;;6334280;22;20354;-69
2021/12/13 00:51:14;;;;;;;16.60;2.30;;;12.60;99.90;;;;;;6334222;22;20009;-68
2021/12/13 00:53:44;;;;;;;13.40;2.00;;;12.60;99.90;;;;;;6332985;22;19999;-69
2021/12/13 00:56:45;;;;;;;16.88;2.30;;;12.60;99.90;;;;;;6334231;22;20007;-68
2021/12/13 00:59:19;;;;;;;18.80;2.38;;;12.60;99.90;;;;;;6333079;22;20009;-69
2021/12/13 01:02:09;;;;;;;20.67;2.28;;;12.60;99.90;;;;;;6334668;22;19999;-69
2021/12/13 01:04:50;;;;;;;21.77;2.40;;;12.60;99.90;;;;;;6332877;22;20445;-69
2021/12/13 01:07:34;;;;;;;15.15;2.50;;;12.60;99.90;;;;;;6334254;22;20025;-69
2021/12/13 01:10:38;;;;;;;19.10;2.33;;;12.70;99.90;;;;;;6334048;22;20003;-68
2021/12/13 01:13:11;;;;;;;18.48;2.28;;;12.70;99.90;;;;;;6332875;22;19998;-70
2021/12/13 01:15:48;;;;;;;23.02;2.10;;;12.70;99.90;;;;;;6334959;22;20344;-70
2021/12/13 01:18:55;;;;;;;19.90;2.35;;;12.70;99.90;;;;;;6334865;22;20017;-69
2021/12/13 01:21:37;;;;;;;22.77;2.65;;;12.70;99.90;;;;;;6307468;22;19995;-69
2021/12/13 01:24:11;;;;;;;16.70;2.53;;;12.70;99.90;;;;;;6333942;22;20326;-69
2021/12/13 01:26:43;;;;;;;13.63;1.73;;;12.80;99.90;;;;;;6331979;22;20034;-70
2021/12/13 01:29:20;;;;;;;17.92;2.03;;;12.70;99.90;;;;;;6334254;22;19999;-69
2021/12/13 01:31:53;;;;;;;11.70;1.83;;;12.70;99.90;;;;;;6333039;22;19995;-68
2021/12/13 01:34:20;;;;;;;20.05;2.00;;;12.70;99.90;;;;;;6335220;22;20006;-69
2021/12/13 01:37:09;;;;;;;15.70;2.10;;;12.70;99.90;;;;;;6306653;22;20002;-71
2021/12/13 01:39:40;;;;;;;15.73;1.80;;;12.70;99.90;;;;;;6332892;22;19999;-68
2021/12/13 01:42:16;;;;;;;22.83;2.15;;;12.80;99.90;;;;;;6334387;22;19998;-69
2021/12/13 01:44:47;;;;;;;;;;;12.80;99.90;;;;;;6306851;22;20434;-69
2021/12/13 01:47:18;;;;;;;18.70;2.00;;;12.80;99.90;;;;;;6333215;22;19976;-69
2021/12/13 01:49:47;;;;;;;14.38;2.47;;;12.70;99.90;;;;;;6334588;22;20006;-68
2021/12/13 01:52:19;;;;;;;16.85;1.83;;;12.70;99.90;;;;;;6332538;22;20070;-68
2021/12/13 01:54:45;;;;;;;13.00;1.85;;;12.70;99.90;;;;;;6333249;22;20072;-68
2021/12/13 02:02:17;;;;;;;24.38;2.70;;;12.60;99.90;;;;;;6307533;22;20013;-69
2021/12/13 02:04:53;;;;;;;16.10;2.20;;;12.60;99.90;;;;;;6333287;22;20003;-71
2021/12/13 02:07:22;;;;;;;15.52;1.92;;;12.70;99.90;;;;;;6334486;22;20014;-70
2021/12/13 02:09:49;;;;;;;14.52;1.73;;;12.70;99.90;;;;;;6334145;22;20022;-70
2021/12/13 02:12:18;;;;;;;20.23;2.05;;;12.70;99.90;;;;;;6332440;22;20002;-69
2021/12/13 02:16:55;;;;;;;14.55;2.30;;;12.60;99.90;;;;;;6333085;22;20010;-69
2021/12/13 02:17:37;;;;;;;11.98;1.85;;;12.60;99.90;;;;;;6333639;22;20047;-68
2021/12/13 02:20:18;;;;;;;10.90;1.58;;;12.80;99.90;;;;;;6303662;22;20434;-69
2021/12/13 02:22:51;;;;;;;19.80;2.20;;;12.80;99.90;;;;;;6305713;22;20042;-68
2021/12/13 02:25:26;;;;;;;18.83;2.05;;;12.80;99.90;;;;;;6332765;22;20402;-68
2021/12/13 02:27:58;;;;;;;16.30;2.07;;;12.80;99.90;;;;;;6333987;22;20005;-70
2021/12/13 02:30:40;;;;;;;13.15;2.10;;;12.70;99.90;;;;;;6334815;22;20082;-68
2021/12/13 02:33:10;;;;;;;15.98;2.65;;;12.80;99.90;;;;;;6333239;22;20310;-69
2021/12/13 02:35:41;;;;;;;12.07;1.85;;;12.80;99.90;;;;;;6333029;22;20339;-68
2021/12/13 02:38:10;;;;;;;16.23;2.05;;;12.70;99.90;;;;;;6332360;22;19999;-68
2021/12/13 02:40:35;;;;;;;17.10;2.15;;;12.70;99.90;;;;;;6333572;22;20426;-69
2021/12/13 02:43:03;;;;;;;15.43;1.85;;;12.70;99.90;;;;;;6335742;22;20002;-69
2021/12/13 02:45:35;;;;;;;17.13;1.50;;;12.80;99.90;;;;;;6334495;22;20003;-68
2021/12/13 02:48:19;;;;;;;17.50;2.00;;;12.70;99.90;;;;;;6335523;22;20496;-70
2021/12/13 02:51:08;;;;;;;10.88;1.60;;;12.70;99.90;;;;;;6334931;22;19999;-71
2021/12/13 02:53:41;;;;;;;15.68;2.03;;;12.60;99.90;;;;;;6258934;22;20007;-68
2021/12/13 02:56:08;;;;;;;22.63;2.03;;;12.70;99.90;;;;;;6335349;22;20339;-69
2021/12/13 02:58:35;;;;;;;15.82;2.47;;;12.70;99.90;;;;;;6334307;22;19998;-68
2021/12/13 03:01:20;;;;;;;18.50;2.42;;;12.70;99.90;;;;;;6337350;22;20005;-68
2021/12/13 03:03:58;;;;;;;17.73;2.10;;;12.70;99.90;;;;;;6337249;22;20462;-69
2021/12/13 03:06:31;;;;;;;15.68;2.08;;;12.70;99.90;;;;;;6311730;22;20032;-68
2021/12/13 03:09:02;;;;;;;15.73;2.05;;;12.70;99.90;;;;;;6313765;22;20006;-70
2021/12/13 03:11:33;;;;;;;15.25;2.25;;;12.80;99.90;;;;;;6314188;22;20435;-68
2021/12/13 03:14:10;;;;;;;18.08;2.05;;;12.70;99.90;;;;;;6342239;22;20433;-68
2021/12/13 03:16:59;;;;;;;22.25;2.08;;;12.80;99.90;;;;;;6339995;22;20088;-69
2021/12/13 03:19:30;;;;;;;15.00;1.77;;;12.80;99.90;;;;;;6337814;22;20221;-69
2021/12/13 03:22:15;;;;;;;16.17;2.15;;;12.70;99.90;;;;;;6337538;22;19998;-67
2021/12/13 03:25:02;;;;;;;15.27;2.22;;;12.70;99.90;;;;;;6337109;22;20350;-69
2021/12/13 03:27:48;;;;;;;20.35;2.00;;;12.80;99.90;;;;;;6335771;22;20133;-69
2021/12/13 03:30:39;;;;;;;14.05;2.10;;;12.90;99.90;;;;;;6335027;22;19999;-69
2021/12/13 03:33:10;;;;;;;14.38;2.15;;;12.90;99.90;;;;;;6333998;22;20005;-69
2021/12/13 03:35:45;;;;;;;13.32;2.05;;;12.90;99.90;;;;;;6335658;22;20003;-69
2021/12/13 03:38:18;;;;;;;14.00;1.55;;;12.90;99.90;;;;;;6307009;22;20279;-70
2021/12/13 03:40:47;;;;;;;14.40;1.80;;;12.90;99.90;;;;;;6335225;22;20074;-69
2021/12/13 03:43:17;;;;;;;18.80;1.95;;;12.90;99.90;;;;;;6335210;22;20426;-68
2021/12/13 03:45:47;;;;;;;15.32;1.80;;;12.90;99.90;;;;;;6333019;22;20340;-71
2021/12/13 03:48:17;;;;;;;15.65;1.63;;;12.90;99.90;;;;;;6335278;22;20014;-69
2021/12/13 03:50:46;;;;;;;15.20;1.90;;;13.00;99.90;;;;;;6334434;22;20007;-69
2021/12/13 03:53:19;;;;;;;15.15;1.90;;;13.00;99.90;;;;;;6333426;22;20426;-70
2021/12/13 03:55:48;;;;;;;13.35;1.80;;;13.00;99.90;;;;;;6334461;22;20045;-68
2021/12/13 03:58:18;;;;;;;17.35;1.70;;;13.00;99.90;;;;;;6306163;22;20019;-71
2021/12/13 04:00:53;;;;;;;13.05;2.10;;;13.00;99.90;;;;;;6333491;22;19994;-69
2021/12/13 04:03:21;;;;;;;15.70;2.20;;;13.00;99.90;;;;;;6334334;22;20003;-70
2021/12/13 04:05:48;;;;;;;11.32;1.77;;;13.00;99.90;;;;;;6332833;22;20007;-69
2021/12/13 04:08:17;;;;;;;10.38;1.90;;;13.00;99.90;;;;;;6334961;22;20003;-68
2021/12/13 04:10:53;;;;;;;13.68;1.80;;;12.90;99.90;;;;;;6336028;22;19994;-69
2021/12/13 04:13:25;;;;;;;15.93;2.05;;;12.80;99.90;;;;;;6334994;22;19991;-70
2021/12/13 04:21:25;;;;;;;17.05;1.80;;;12.80;99.90;;;;;;6336225;22;20015;-70
2021/12/13 04:23:57;;;;;;;19.88;2.10;;;12.80;99.90;;;;;;6335585;22;20006;-69
2021/12/13 04:26:25;;;;;;;19.63;2.00;;;12.70;99.90;;;;;;6334991;22;20445;-69
2021/12/13 04:28:55;;;;;;;13.38;1.63;;;12.80;99.90;;;;;;6308797;22;20010;-73
2021/12/13 04:31:24;;;;;;;13.07;1.95;;;12.80;99.90;;;;;;6336322;22;20020;-69
2021/12/13 04:33:56;;;;;;;14.93;1.50;;;12.70;99.90;;;;;;6334729;22;19999;-70
2021/12/13 04:36:37;;;;;;;19.08;1.75;;;12.80;99.90;;;;;;6335734;22;20106;-70
2021/12/13 04:39:24;;;;;;;18.52;1.92;;;12.90;99.90;;;;;;6335074;22;20007;-68
2021/12/13 04:42:09;;;;;;;19.98;2.00;;;12.80;99.90;;;;;;6336703;22;19999;-70
2021/12/13 04:44:53;;;;;;;16.77;2.00;;;12.70;99.90;;;;;;6337378;22;20003;-68
2021/12/13 04:47:31;;;;;;;12.55;1.80;;;12.70;99.90;;;;;;6337528;22;20002;-69
2021/12/13 04:50:29;;;;;;;14.77;2.20;;;12.80;99.90;;;;;;6335873;22;19994;-68
2021/12/13 04:52:56;;;;;;;18.80;2.20;;;12.70;99.90;;;;;;6315020;22;20003;-68
2021/12/13 04:55:34;;;;;;;16.90;1.90;;;12.70;99.90;;;;;;6308510;22;20450;-69
2021/12/13 04:58:07;;;;;;;11.10;1.60;;;12.70;99.90;;;;;;6336213;22;20010;-69
2021/12/13 05:00:40;;;;;;;13.73;1.92;;;12.70;99.90;;;;;;6335154;22;20081;-69
2021/12/13 05:03:08;;;;;;;12.50;1.85;;;12.60;99.90;;;;;;6336395;22;20060;-69
2021/12/13 05:05:35;;;;;;;15.15;1.80;;;12.60;99.90;;;;;;6282199;22;20189;-69
2021/12/13 05:08:05;;;;;;;18.80;1.98;;;12.60;99.90;;;;;;6337623;22;20007;-69
2021/12/13 05:10:32;;;;;;;14.15;2.00;;;12.60;99.90;;;;;;6335980;22;20121;-68
2021/12/13 05:13:23;;;;;;;16.33;2.30;;;12.60;99.90;;;;;;6335068;22;20030;-68
2021/12/13 05:16:09;;;;;;;19.85;2.38;;;12.60;99.90;;;;;;6336260;22;20071;-69
2021/12/13 05:18:47;;;;;;;19.10;2.30;;;12.60;99.90;;;;;;6335861;22;20284;-68
2021/12/13 05:21:19;;;;;;;22.35;2.88;;;12.70;99.90;;;;;;6308212;22;20013;-70
2021/12/13 05:23:51;;;;;;;9.65;1.42;;;12.70;99.90;;;;;;6335896;22;20339;-70
2021/12/13 05:26:43;;;;;;;15.95;2.05;;;12.70;99.90;;;;;;6307398;22;20010;-69
2021/12/13 05:29:52;;;;;;;17.23;2.03;;;12.60;99.90;;;;;;6264715;22;20006;-69
2021/12/13 05:32:26;;;;;;;18.38;3.00;;;12.50;99.90;;;;;;6177967;23;20001;-69
2021/12/13 05:35:01;;;;;;;17.83;2.22;;;12.60;99.90;;;;;;6179030;23;20012;-69
2021/12/13 05:37:41;;;;;;;12.25;1.70;;;12.60;99.90;;;;;;6274690;22;20003;-70
2021/12/13 05:40:12;;;;;;;17.48;2.00;;;12.50;99.90;;;;;;6335260;22;20303;-69
2021/12/13 05:42:47;;;;;;;13.63;1.90;;;12.50;99.90;;;;;;6307113;22;20457;-68
2021/12/13 05:45:19;;;;;;;10.10;1.42;;;12.50;99.90;;;;;;6335251;22;20029;-69
2021/12/13 05:48:43;;;;;;;14.35;2.00;;;12.50;99.90;;;;;;6333577;22;20044;-69
2021/12/13 05:51:30;;;;;;;15.15;2.10;;;12.40;99.90;;;;;;6176586;23;20026;-68
2021/12/13 05:54:01;;;;;;;12.57;1.85;;;12.40;99.90;;;;;;6176996;23;20040;-69
2021/12/13 05:56:41;;;;;;;12.30;1.85;;;12.50;99.90;;;;;;6299845;22;20018;-69
2021/12/13 05:59:09;;;;;;;8.07;1.77;;;12.50;99.90;;;;;;6332011;22;20070;-69
2021/12/13 06:01:59;;;;;;;15.32;2.10;;;12.50;99.90;;;;;;6305478;22;20003;-70
2021/12/13 06:04:41;;;;;;;10.30;1.48;;;12.40;99.90;;;;;;6335112;22;19999;-68
2021/12/13 06:07:35;;;;;;;15.52;2.17;;;12.40;99.90;;;;;;6303739;22;20425;-69
2021/12/13 06:10:08;;;;;;;8.77;1.50;;;12.30;99.90;;;;;;6328567;22;20032;-69
2021/12/13 06:12:54;;;;;;;10.82;1.80;;;12.30;99.90;;;;;;6332590;22;19995;-68
2021/12/13 06:15:46;;;;;;;12.90;1.87;;;12.40;99.90;;;;;;6333791;22;20316;-69
2021/12/13 06:18:17;;;;;;;9.43;1.40;;;12.30;99.90;;;;;;6326652;22;20329;-69
2021/12/13 06:20:55;;;;;;;14.35;2.10;;;12.30;99.90;;;;;;6336118;22;20331;-69
2021/12/13 06:23:29;;;;;;;13.30;1.83;;;12.30;99.90;;;;;;6334900;22;20060;-70
2021/12/13 06:26:02;;;;;;;6.20;1.50;;;12.30;99.90;;;;;;6335067;22;19999;-69
2021/12/13 06:28:33;;;;;;;10.27;1.65;;;12.20;99.90;;;;;;6335832;22;20070;-69
2021/12/13 06:31:10;;;;;;;8.55;1.70;;;12.20;99.90;;;;;;6308222;22;20013;-70
2021/12/13 06:33:55;;;;;;;11.00;1.40;;;12.20;99.90;;;;;;6334937;22;20323;-70
2021/12/13 06:36:39;;;;;;;10.57;1.60;;;12.20;99.90;;;;;;6337283;22;20366;-69
2021/12/13 06:39:13;;;;;;;16.08;2.00;;;12.30;99.90;;;;;;6333884;22;20030;-68
2021/12/13 06:41:43;;;;;;;10.18;1.60;;;12.30;99.90;;;;;;6336901;22;20081;-70
2021/12/13 06:44:27;;;;;;;11.10;1.73;;;12.30;99.90;;;;;;6336954;22;19998;-69
2021/12/13 06:47:01;;;;;;;11.85;1.40;;;12.30;99.90;;;;;;6334504;22;20007;-68
2021/12/13 06:49:40;;;;;;;11.15;2.03;;;12.30;99.90;;;;;;6336136;22;20104;-70
2021/12/13 06:52:21;;;;;;;13.02;2.00;;;12.30;99.90;;;;;;6335859;22;20273;-68
2021/12/13 06:55:00;;;;;;;14.27;1.88;;;12.30;99.90;;;;;;6335493;22;20010;-71
2021/12/13 06:57:49;;;;;;;13.13;2.03;;;12.30;99.90;;;;;;6308610;22;20003;-70
2021/12/13 07:00:21;;;;;;;15.30;1.90;;;12.40;99.90;;;;;;6333950;22;20007;-70
2021/12/13 07:02:58;;;;;;;12.32;1.70;;;12.40;99.90;;;;;;6336386;22;20002;-69
2021/12/13 07:05:31;;;;;;;;;;;12.40;99.90;;;;;;6335880;22;20003;-69
2021/12/13 07:08:02;;;;;;;11.73;1.70;;;12.30;99.90;;;;;;6336094;22;19903;-68
2021/12/13 07:10:30;;;;;;;12.23;1.45;;;12.40;99.90;;;;;;6336529;22;20003;-70
2021/12/13 07:13:21;;;;;;;12.98;1.85;;;12.40;99.90;;;;;;6334972;22;20423;-68
2021/12/13 07:16:01;;;;;;;11.05;1.60;;;12.40;99.90;;;;;;6336334;22;20002;-68
2021/12/13 07:18:47;;;;;;;15.43;1.75;;;12.40;99.90;;;;;;6335981;22;20072;-68
2021/12/13 07:21:20;;;;;;;17.60;1.98;;;12.40;99.90;;;;;;6337095;22;20074;-70
2021/12/13 07:24:08;;;;;;;15.68;1.98;;;12.40;99.90;;;;;;6342696;22;19999;-69
2021/12/13 07:27:05;;;;;;;11.00;1.67;;;12.40;99.90;;;;;;6345144;22;20024;-70
2021/12/13 07:29:39;;;;;;;12.10;1.50;;;12.40;99.90;;;;;;6316491;22;19999;-70
2021/12/13 07:32:11;;;;;;;13.20;1.80;;;12.40;99.90;;;;;;6340654;22;20029;-70
2021/12/13 07:34:54;;;;;;;7.80;1.63;;;12.40;99.90;;;;;;6339470;22;20007;-69
2021/12/13 07:37:35;;;;;;;9.57;1.60;;;12.40;99.90;;;;;;6338372;22;20051;-70
2021/12/13 07:40:33;;;;;;;11.75;1.63;;;12.30;99.90;;;;;;6333447;22;20459;-69
2021/12/13 07:43:14;;;;;;;7.82;1.73;;;12.30;99.90;;;;;;6333545;22;20830;-70
2021/12/13 07:45:57;;;;;;;8.27;1.60;;;12.20;99.90;;;;;;6304550;22;20077;-69
2021/12/13 07:48:49;;;;;;;7.22;1.52;;;12.10;99.90;;;;;;6334514;22;20066;-69
2021/12/13 07:51:38;;;;;;;8.60;1.60;;;12.10;99.90;;;;;;6334078;22;20006;-70
2021/12/13 07:54:11;;;;;;;8.07;1.48;;;12.10;99.90;;;;;;6333392;22;19991;-69
2021/12/13 07:56:44;;;;;;;7.57;1.58;;;12.10;99.90;;;;;;6331486;22;20057;-69
2021/12/13 07:59:21;;;;;;;11.35;1.60;;;12.20;99.90;;;;;;6331060;22;20010;-69
2021/12/13 08:01:53;;;;;;;7.88;1.52;;;12.20;99.90;;;;;;6305705;22;20014;-69
2021/12/13 08:04:31;;;;;;;10.18;1.48;;;12.20;99.90;;;;;;6334183;22;20326;-70
2021/12/13 08:07:09;;;;;;;6.20;1.73;;;12.20;99.90;;;;;;6333351;22;20064;-69
2021/12/13 08:09:48;;;;;;;4.32;1.05;;;12.20;99.90;;;;;;6334381;22;20028;-69
2021/12/13 08:12:16;;;;;;;6.32;1.10;;;12.10;99.90;;;;;;6333168;22;20045;-69
2021/12/13 08:14:44;;;;;;;4.05;1.13;;;12.10;99.90;;;;;;6334451;22;20431;-70
2021/12/13 08:17:16;;;;;;;3.90;0.80;;;12.20;99.90;;;;;;6334705;22;20017;-70
2021/12/13 08:19:50;;;;;;;2.38;0.85;;;12.20;99.90;;;;;;6335590;22;20052;-70
2021/12/13 08:22:19;;;;;;;5.40;0.98;;;12.30;99.90;;;;;;6335760;22;20003;-68
2021/12/13 08:24:52;;;;;;;5.88;0.90;;;12.20;99.90;;;;;;6334294;22;20002;-69
2021/12/13 08:27:29;;;;;;;2.95;1.02;;;12.20;99.90;;;;;;6307547;22;20288;-70
2021/12/13 08:30:16;;;;;;;6.38;0.90;;;12.10;99.90;;;;;;6335851;22;20060;-70
2021/12/13 08:33:02;;;;;;;5.45;0.95;;;12.10;99.90;;;;;;6334267;22;20062;-69
2021/12/13 08:35:53;;;;;;;6.10;1.42;;;12.10;99.90;;;;;;6335703;22;20014;-71
2021/12/13 08:38:37;;;;;;;7.25;1.30;;;12.00;99.90;;;;;;6335136;22;20003;-70
2021/12/13 08:41:30;;;;;;;7.45;1.67;;;12.00;99.90;;;;;;6336275;22;20025;-69
2021/12/13 08:44:18;;;;;;;6.35;1.10;;;11.90;99.90;;;;;;6311490;22;20013;-69
2021/12/13 08:47:11;;;;;;;5.05;1.00;;;11.90;99.90;;;;;;6337510;22;20060;-71
2021/12/13 08:49:48;;;;;;;8.35;1.10;;;11.90;99.90;;;;;;6336982;22;19995;-68
2021/12/13 08:52:13;;;;;;;4.78;1.25;;;11.90;99.90;;;;;;6332258;22;20003;-69
2021/12/13 08:55:11;;;;;;;11.38;1.40;;;11.80;99.90;;;;;;6305035;22;20015;-71
2021/12/13 08:57:45;;;;;;;9.50;1.83;;;11.80;99.90;;;;;;6334925;22;20003;-71
2021/12/13 09:00:14;;;;;;;7.57;1.50;;;11.90;99.90;;;;;;6331658;22;20453;-69
2021/12/13 09:03:09;;;;;;;12.27;1.48;;;11.90;99.90;;;;;;6331052;22;20165;-70
2021/12/13 09:05:39;;;;;;;5.00;1.00;;;12.00;99.90;;;;;;6329554;22;20331;-68
2021/12/13 09:08:12;;;;;;;15.15;1.70;;;12.00;99.90;;;;;;6334864;22;20002;-71
2021/12/13 09:10:44;;;;;;;12.38;1.67;;;12.00;99.90;;;;;;6308823;22;20009;-70
2021/12/13 09:13:11;;;;;;;13.20;1.85;;;12.00;99.90;;;;;;6304312;22;20010;-71
2021/12/13 09:15:38;;;;;;;6.70;1.58;;;12.10;99.90;;;;;;6331162;22;20018;-70
2021/12/13 09:18:06;;;;;;;15.05;2.00;;;12.10;99.90;;;;;;6331390;22;20022;-69
2021/12/13 09:20:41;;;;;;;11.63;1.83;;;12.00;99.90;;;;;;6331731;22;20007;-69
2021/12/13 09:23:15;;;;;;;8.45;1.63;;;12.10;99.90;;;;;;6328590;22;20495;-70
2021/12/13 09:25:45;;;;;;;9.00;1.52;;;12.20;99.90;;;;;;6327444;22;20015;-71
2021/12/13 09:28:17;;;;;;;8.63;1.67;;;12.10;99.90;;;;;;6326078;22;20007;-70
2021/12/13 09:31:15;;;;;;;7.82;1.58;;;12.20;99.90;;;;;;6325949;22;20006;-70
2021/12/13 09:33:45;;;;;;;7.55;1.50;;;12.20;99.90;;;;;;6327787;22;20082;-71
2021/12/13 09:36:14;;;;;;;10.85;1.60;;;12.20;99.90;;;;;;6331540;22;20108;-69
2021/12/13 09:39:04;;;;;;;10.38;1.83;;;12.20;99.90;;;;;;6301348;22;20057;-70
2021/12/13 09:41:33;;;;;;;10.98;1.85;;;12.30;99.90;;;;;;6330657;22;19995;-69
2021/12/13 09:44:08;;;;;;;6.38;1.60;;;12.30;99.90;;;;;;6302275;22;20010;-70
2021/12/13 09:46:49;;;;;;;7.47;1.77;;;12.40;99.90;;;;;;6330658;22;20037;-71
2021/12/13 09:49:29;;;;;;;6.68;1.77;;;12.50;99.90;;;;;;6333255;22;20151;-70
2021/12/13 09:52:00;;;;;;;5.28;1.05;;;12.60;99.90;;;;;;6330475;22;20073;-71
2021/12/13 09:54:37;;;;;;;15.48;1.95;;;12.60;99.90;;;;;;6330420;22;20006;-70
2021/12/13 09:57:10;;;;;;;12.35;1.48;;;12.70;99.90;;;;;;6330484;22;20047;-71
2021/12/13 09:59:43;;;;;;;9.30;2.60;;;12.80;99.90;;;;;;6328744;22;20006;-70
2021/12/13 10:02:19;;;;;;;9.88;1.60;;;12.90;99.90;;;;;;6332459;22;19991;-70
2021/12/13 10:04:46;;;;;;;5.47;1.20;;;12.80;99.90;;;;;;6333329;22;20349;-69
2021/12/13 10:07:23;;;;;;;6.78;1.60;;;12.80;99.90;;;;;;6334022;22;20030;-70
2021/12/13 10:09:54;;;;;;;5.95;1.30;;;12.90;99.90;;;;;;6331092;22;20056;-70
2021/12/13 10:12:35;;;;;;;6.68;1.30;;;12.90;99.90;;;;;;6330922;22;20080;-70
2021/12/13 10:15:27;;;;;;;4.55;1.20;;;13.00;99.90;;;;;;6331021;22;19995;-68
2021/12/13 10:17:59;;;;;;;7.07;0.95;;;12.90;99.90;;;;;;6331179;22;20037;-71
2021/12/13 10:20:48;;;;;;;7.72;1.40;;;12.90;99.90;;;;;;6331235;22;19999;-70
2021/12/13 10:23:18;;;;;;;4.38;0.85;;;12.90;99.90;;;;;;6331659;22;20009;-71
2021/12/13 10:25:47;;;;;;;3.35;0.85;;;13.00;99.90;;;;;;6301043;22;20010;-71
2021/12/13 10:28:17;;;;;;;2.63;0.60;;;12.80;99.90;;;;;;6328910;22;20052;-70
2021/12/13 10:30:49;;;;;;;5.30;0.90;;;12.80;99.90;;;;;;6299843;22;20445;-72
2021/12/13 10:33:16;;;;;;;3.20;0.88;;;12.70;99.90;;;;;;6328427;22;20073;-71
2021/12/13 10:35:43;;;;;;;6.57;0.70;;;12.70;99.90;;;;;;6328302;22;20083;-70
2021/12/13 10:38:18;;;;;;;5.00;0.90;;;12.60;99.90;;;;;;6328124;22;19995;-70
2021/12/13 10:40:58;;;;;;;4.55;1.00;;;12.60;99.90;;;;;;6300366;22;20013;-71
2021/12/13 10:43:28;;;;;;;3.08;0.80;;;12.40;99.90;;;;;;6328792;22;20003;-71
2021/12/13 10:46:07;;;;;;;6.35;0.85;;;12.40;99.90;;;;;;6328424;22;20329;-69
2021/12/13 10:48:42;;;;;;;6.03;0.90;;;12.30;99.90;;;;;;6329446;22;20048;-69
2021/12/13 10:51:20;;;;;;;2.28;0.43;;;12.30;99.90;;;;;;6328202;22;20075;-70
2021/12/13 10:53:50;;;;;;;4.22;0.65;;;12.20;99.90;;;;;;6328328;22;20435;-68
2021/12/13 10:56:25;;;;;;;2.88;0.70;;;12.20;99.90;;;;;;6327413;22;20045;-69
2021/12/13 10:58:55;;;;;;;3.30;0.60;;;12.20;99.90;;;;;;6328200;22;20003;-70
2021/12/13 11:01:25;;;;;;;1.92;0.50;;;12.20;99.90;;;;;;6327850;22;19999;-71
2021/12/13 11:03:54;;;;;;;4.25;0.70;;;12.20;99.90;;;;;;6331846;22;20412;-71
2021/12/13 11:06:23;;;;;;;1.95;0.60;;;12.20;99.90;;;;;;6333698;22;19999;-70
2021/12/13 11:08:50;;;;;;;2.33;0.80;;;12.30;99.90;;;;;;6332992;22;20003;-71
2021/12/13 11:11:39;;;;;;;1.05;0.55;;;12.30;99.90;;;;;;6332880;22;20019;-69
2021/12/13 11:14:10;;;;;;;4.55;0.90;;;12.30;99.90;;;;;;6333293;22;20002;-69
2021/12/13 11:16:44;;;;;;;3.20;0.60;;;12.40;99.90;;;;;;6332459;22;20017;-68
2021/12/13 11:19:13;;;;;;;2.25;0.70;;;12.40;99.90;;;;;;6331578;22;20007;-70
2021/12/13 11:21:42;;;;;;;2.15;0.60;;;12.50;99.90;;;;;;6331285;22;19995;-70
2021/12/13 11:24:15;;;;;;;2.35;0.65;;;12.50;99.90;;;;;;6329685;22;20455;-69
2021/12/13 11:26:46;;;;;;;3.65;0.80;;;12.50;99.90;;;;;;6330903;22;20060;-70
2021/12/13 11:29:15;;;;;;;2.90;0.98;;;12.50;99.90;;;;;;6331133;22;20307;-69
2021/12/13 11:32:31;;;;;;;2.78;0.75;;;12.50;99.90;;;;;;6333170;22;20104;-70
2021/12/13 11:35:15;;;;;;;2.95;1.00;;;12.50;99.90;;;;;;6331954;22;19991;-70
2021/12/13 11:38:03;;;;;;;3.45;0.70;;;12.40;99.90;;;;;;6337379;22;20006;-71
2021/12/13 11:40:44;;;;;;;1.83;0.88;;;12.30;99.90;;;;;;6334015;22;20479;-71
2021/12/13 11:43:47;;;;;;;2.13;0.75;;;12.20;99.90;;;;;;6332903;22;20003;-70
2021/12/13 11:46:50;;;;;;;4.53;1.13;;;12.20;99.90;;;;;;6333752;22;20025;-71
2021/12/13 11:49:43;;;;;;;1.58;0.70;;;12.10;99.90;;;;;;6331929;22;20006;-71
2021/12/13 11:52:18;;;;;;;2.30;0.82;;;12.00;99.90;;;;;;6331260;22;20003;-69
2021/12/13 11:55:11;;;;;;;3.70;0.90;;;11.90;99.90;;;;;;6330965;22;20014;-71
2021/12/13 11:58:11;;;;;;;4.22;1.35;;;11.90;99.90;;;;;;6330236;22;20003;-69
2021/12/13 12:00:39;;;;;;;2.85;0.80;;;11.90;99.90;;;;;;6329527;22;20360;-71
2021/12/13 12:03:43;;;;;;;1.75;0.82;;;11.80;99.90;;;;;;6302970;22;20378;-71
2021/12/13 12:06:46;;;;;;;3.83;1.20;;;11.90;99.90;;;;;;6301117;22;20033;-70
2021/12/13 12:09:47;;;;;;;3.78;1.35;;;11.80;99.90;;;;;;6328794;22;19999;-71
2021/12/13 12:12:28;;;;;;;5.05;1.45;;;11.90;99.90;;;;;;6330123;22;20053;-70
2021/12/13 12:15:00;;;;;;;2.42;1.15;;;11.80;99.90;;;;;;6330530;22;20003;-72
2021/12/13 12:17:27;;;;;;;3.28;1.17;;;11.90;99.90;;;;;;6331807;22;20017;-70
2021/12/13 12:19:54;;;;;;;3.05;1.10;;;12.00;99.90;;;;;;6303405;22;20007;-71
2021/12/13 12:22:21;;;;;;;4.22;0.90;;;12.00;99.90;;;;;;6304586;22;20359;-71
2021/12/13 12:24:50;;;;;;;1.73;0.80;;;12.10;99.90;;;;;;6331083;22;19995;-71
2021/12/13 12:27:19;;;;;;;2.38;0.77;;;12.20;99.90;;;;;;6331896;22;20079;-70
2021/12/13 12:30:25;;;;;;;1.30;0.80;;;12.20;99.90;;;;;;6333768;22;19999;-71
2021/12/13 12:32:59;;;;;;;2.13;0.60;;;12.30;99.90;;;;;;6299695;22;20003;-72
2021/12/13 12:35:29;;;;;;;1.13;0.70;;;12.20;99.90;;;;;;6306715;22;20006;-71
2021/12/13 12:38:00;;;;;;;1.83;0.90;;;12.20;99.90;;;;;;6332676;22;20430;-71
2021/12/13 12:40:38;;;;;;;1.00;0.80;;;12.30;99.90;;;;;;6330974;22;20069;-70
2021/12/13 12:43:10;;;;;;;1.45;0.98;;;12.30;99.90;;;;;;6332945;22;20036;-70
2021/12/13 12:45:40;;;;;;;2.40;0.70;;;12.30;99.90;;;;;;6303144;22;20010;-71
2021/12/13 12:48:31;;;;;;;2.08;0.95;;;12.30;99.90;;;;;;6331235;22;20319;-70
2021/12/13 12:51:02;;;;;;;4.43;1.00;;;12.30;99.90;;;;;;6304708;22;20007;-70
2021/12/13 12:53:40;;;;;;;4.10;1.20;;;12.30;99.90;;;;;;6330075;22;20022;-72
2021/12/13 12:56:21;;;;;;;3.35;0.70;;;12.30;99.90;;;;;;6331890;22;20007;-70
2021/12/13 12:59:08;;;;;;;3.60;0.80;;;12.20;99.90;;;;;;6331524;22;20003;-71
2021/12/13 13:01:53;;;;;;;3.08;1.00;;;12.20;99.90;;;;;;6333367;22;20318;-72
2021/12/13 13:04:53;;;;;;;2.25;1.13;;;12.30;99.90;;;;;;6332178;22;20034;-70
2021/12/13 13:07:28;;;;;;;2.63;0.80;;;12.30;99.90;;;;;;6332866;22;20070;-71
2021/12/13 13:10:00;;;;;;;3.53;1.00;;;12.30;99.90;;;;;;6333659;22;19998;-70
2021/12/13 13:12:29;;;;;;;2.67;0.90;;;12.10;99.90;;;;;;6333496;22;20406;-70
2021/12/13 13:14:59;;;;;;;2.55;1.00;;;12.10;99.90;;;;;;6305188;22;20014;-70
2021/12/13 13:17:28;;;;;;;1.88;1.23;;;12.10;99.90;;;;;;6331726;22;20505;-70
2021/12/13 13:19:58;;;;;;;4.18;1.80;;;12.00;99.90;;;;;;6303531;22;20003;-70
2021/12/13 13:22:31;;;;;;;1.90;1.20;;;12.00;99.90;;;;;;6336813;22;20006;-70
2021/12/13 13:25:07;;;;;;;3.05;1.50;;;12.10;99.90;;;;;;6335331;22;20283;-71
2021/12/13 13:27:34;;;;;;;5.50;2.25;;;12.10;99.90;;;;;;6336461;22;20003;-71
2021/12/13 13:30:00;;;;;;;5.28;1.80;;;12.10;99.90;;;;;;6308228;22;20055;-71
2021/12/13 13:32:27;;;;;;;4.28;1.70;;;12.00;99.90;;;;;;6334586;22;20072;-70
2021/12/13 13:34:56;;;;;;;4.47;1.40;;;12.00;99.90;;;;;;6310622;22;20402;-70
2021/12/13 13:37:33;;;;;;;3.85;1.75;;;12.00;99.90;;;;;;6335397;22;20430;-70
2021/12/13 13:40:05;;;;;;;2.80;1.50;;;12.10;99.90;;;;;;6335714;22;19995;-72
2021/12/13 13:42:34;;;;;;;3.08;1.27;;;12.20;99.90;;;;;;6336789;22;20075;-71